Time,TemperatureF,DewpointF,PressureIn,WindDirection,WindDirectionDegrees,WindSpeedMPH,WindSpeedGustMPH,Humidity,HourlyPrecipIn,Conditions,Clouds,dailyrainin,SoftwareType,DateUTC
2013-09-13 00:02:00,60.8,51.3,30.07,NW,323,2.0,2.0,71,0.00,CLR,CLR,0.00,WeatherDisplay:10.34,2013-09-13 06:02:00,
2013-09-13 00:07:00,60.3,50.9,30.07,NW,323,2.0,2.0,71,0.00,CLR,CLR,0.00,WeatherDisplay:10.34,2013-09-13 06:07:00,
2013-09-13 00:12:00,59.9,50.8,30.07,NW,323,0.0,0.0,72,0.00,CLR,CLR,0.00,WeatherDisplay:10.34,2013-09-13 06:12:00,
2013-09-13 00:17:00,59.5,50.8,30.07,NW,322,1.0,1.0,73,0.00,CLR,CLR,0.00,WeatherDisplay:10.34,2013-09-13 06:17:00,
2013-09-13 00:22:00,59.0,50.7,30.07,NW,326,3.0,5.0,74,0.00,CLR,CLR,0.00,WeatherDisplay:10.34,2013-09-13 06:22:00,
2013-09-13 00:27:00,58.6,50.3,30.07,NW,326,0.0,2.0,74,0.00,CLR,CLR,0.00,WeatherDisplay:10.34,2013-09-13 06:27:00,
2013-09-13 00:32:00,58.2,50.3,30.06,NW,326,2.0,2.0,75,0.00,CLR,CLR,0.00,WeatherDisplay:10.34,2013-09-13 06:32:00,
2013-09-13 00:37:00,57.7,50.2,30.06,NW,326,2.0,2.0,76,0.00,CLR,CLR,0.00,WeatherDisplay:10.34,2013-09-13 06:37:00,
2013-09-13 00:42:00,57.3,50.1,30.06,NW,326,2.0,3.0,77,0.00,CLR,CLR,0.00,WeatherDisplay:10.34,2013-09-13 06:42:00,
2013-09-13 00:47:00,57.2,50.4,30.06,NW,326,0.0,1.0,78,0.00,CLR,CLR,0.00,WeatherDisplay:10.34,2013-09-13 06:47:00,
2013-09-13 00:52:00,57.2,50.4,30.06,NW,326,0.0,0.0,78,0.00,CLR,CLR,0.00,WeatherDisplay:10.34,2013-09-13 06:52:00,
2013-09-13 00:57:00,57.2,50.4,30.06,NW,326,0.0,0.0,78,0.00,CLR,CLR,0.00,WeatherDisplay:10.34,2013-09-13 06:57:00,
2013-09-13 01:02:00,57.0,50.2,30.06,NW,326,0.0,0.0,78,0.00,CLR,CLR,0.00,WeatherDisplay:10.34,2013-09-13 07:02:00,
2013-09-13 01:07:00,56.6,49.8,30.06,NW,326,4.0,4.0,78,0.00,CLR,CLR,0.00,WeatherDisplay:10.34,2013-09-13 07:07:00,
2013-09-13 01:12:00,56.2,50.1,30.05,NW,326,4.0,4.0,80,0.00,CLR,CLR,0.00,WeatherDisplay:10.34,2013-09-13 07:12:00,
2013-09-13 01:17:00,56.0,49.9,30.05,NW,326,2.0,3.0,80,0.00,CLR,CLR,0.00,WeatherDisplay:10.34,2013-09-13 07:17:00,
2013-09-13 01:22:00,55.8,50.1,30.05,NW,326,2.0,3.0,81,0.00,CLR,CLR,0.00,WeatherDisplay:10.34,2013-09-13 07:22:00,
2013-09-13 01:27:00,55.3,49.9,30.05,NW,326,1.0,3.0,82,0.00,CLR,CLR,0.00,WeatherDisplay:10.34,2013-09-13 07:27:00,
2013-09-13 01:32:00,55.1,49.7,30.05,WSW,257,3.0,3.0,82,0.00,CLR,CLR,0.00,WeatherDisplay:10.34,2013-09-13 07:32:00,
2013-09-13 01:37:00,55.1,50.0,30.05,WNW,283,5.0,7.0,83,0.00,CLR,CLR,0.00,WeatherDisplay:10.34,2013-09-13 07:37:00,
2013-09-13 01:42:00,55.3,50.2,30.04,West,277,0.0,1.0,83,0.00,CLR,CLR,0.00,WeatherDisplay:10.34,2013-09-13 07:42:00,
2013-09-13 01:47:00,55.4,50.3,30.04,West,277,1.0,1.0,83,0.00,CLR,CLR,0.00,WeatherDisplay:10.34,2013-09-13 07:47:00,
2013-09-13 01:52:00,55.5,50.4,30.04,West,277,0.0,0.0,83,0.00,CLR,CLR,0.00,WeatherDisplay:10.34,2013-09-13 07:52:00,
2013-09-13 01:57:00,55.5,50.4,30.04,West,277,0.0,0.0,83,0.00,CLR,CLR,0.00,WeatherDisplay:10.34,2013-09-13 07:57:00,
2013-09-13 02:02:00,55.5,50.4,30.04,West,277,0.0,0.0,83,0.00,CLR,CLR,0.00,WeatherDisplay:10.34,2013-09-13 08:02:00,
2013-09-13 02:07:00,55.5,50.1,30.04,West,277,0.0,0.0,82,0.00,CLR,CLR,0.00,WeatherDisplay:10.34,2013-09-13 08:07:00,
2013-09-13 02:12:00,55.4,50.0,30.03,SW,229,2.0,2.0,82,0.00,CLR,CLR,0.00,WeatherDisplay:10.34,2013-09-13 08:12:00,
2013-09-13 02:17:00,55.3,49.9,30.03,SW,229,1.0,1.0,82,0.00,CLR,CLR,0.00,WeatherDisplay:10.34,2013-09-13 08:17:00,
2013-09-13 02:22:00,55.3,49.9,30.04,SW,229,0.0,0.0,82,0.00,CLR,CLR,0.00,WeatherDisplay:10.34,2013-09-13 08:22:00,
2013-09-13 02:27:00,55.2,50.1,30.04,SW,229,5.0,5.0,83,0.00,CLR,CLR,0.00,WeatherDisplay:10.34,2013-09-13 08:27:00,
2013-09-13 02:32:00,55.1,50.0,30.04,SW,229,3.0,3.0,83,0.00,CLR,CLR,0.00,WeatherDisplay:10.34,2013-09-13 08:32:00,
2013-09-13 02:37:00,55.1,50.4,30.04,SW,229,0.0,0.0,84,0.00,CLR,CLR,0.00,WeatherDisplay:10.34,2013-09-13 08:37:00,
2013-09-13 02:42:00,55.1,50.4,30.04,SW,229,0.0,0.0,84,0.00,CLR,CLR,0.00,WeatherDisplay:10.34,2013-09-13 08:42:00,
2013-09-13 02:47:00,55.1,50.0,30.04,SW,229,0.0,0.0,83,0.00,CLR,CLR,0.00,WeatherDisplay:10.34,2013-09-13 08:47:00,
2013-09-13 02:52:00,55.1,50.0,30.04,SW,229,1.0,1.0,83,0.00,CLR,CLR,0.00,WeatherDisplay:10.34,2013-09-13 08:52:00,
2013-09-13 02:57:00,55.1,50.0,30.04,SW,229,1.0,1.0,83,0.00,CLR,CLR,0.00,WeatherDisplay:10.34,2013-09-13 08:57:00,
2013-09-13 03:02:00,55.0,49.9,30.04,SW,229,3.0,3.0,83,0.00,CLR,CLR,0.00,WeatherDisplay:10.34,2013-09-13 09:02:00,
2013-09-13 03:07:00,55.1,50.4,30.04,SW,229,0.0,0.0,84,0.00,CLR,CLR,0.00,WeatherDisplay:10.34,2013-09-13 09:07:00,
2013-09-13 03:12:00,55.0,49.9,30.03,SW,229,1.0,1.0,83,0.00,CLR,CLR,0.00,WeatherDisplay:10.34,2013-09-13 09:12:00,
2013-09-13 03:17:00,55.0,49.9,30.03,SW,229,0.0,0.0,83,0.00,CLR,CLR,0.00,WeatherDisplay:10.34,2013-09-13 09:17:00,
2013-09-13 03:22:00,55.0,49.9,30.03,SW,229,0.0,0.0,83,0.00,CLR,CLR,0.00,WeatherDisplay:10.34,2013-09-13 09:22:00,
2013-09-13 03:27:00,55.0,50.3,30.03,WSW,240,5.0,5.0,84,0.00,CLR,CLR,0.00,WeatherDisplay:10.34,2013-09-13 09:27:00,
2013-09-13 03:32:00,55.0,50.3,30.03,WSW,240,1.0,2.0,84,0.00,CLR,CLR,0.00,WeatherDisplay:10.34,2013-09-13 09:32:00,
2013-09-13 03:37:00,54.9,50.2,30.03,WSW,240,0.0,0.0,84,0.00,CLR,CLR,0.00,WeatherDisplay:10.34,2013-09-13 09:37:00,
2013-09-13 03:42:00,54.9,50.2,30.03,WSW,240,0.0,0.0,84,0.00,CLR,CLR,0.00,WeatherDisplay:10.34,2013-09-13 09:42:00,
2013-09-13 03:47:00,54.9,49.8,30.03,WSW,240,0.0,0.0,83,0.00,CLR,CLR,0.00,WeatherDisplay:10.34,2013-09-13 09:47:00,
2013-09-13 03:52:00,54.8,49.7,30.03,WSW,240,0.0,0.0,83,0.00,CLR,CLR,0.00,WeatherDisplay:10.34,2013-09-13 09:52:00,
2013-09-13 03:57:00,54.7,49.3,30.03,WSW,240,0.0,0.0,82,0.00,CLR,CLR,0.00,WeatherDisplay:10.34,2013-09-13 09:57:00,
2013-09-13 04:02:00,54.7,49.6,30.03,WSW,240,0.0,0.0,83,0.00,CLR,CLR,0.00,WeatherDisplay:10.34,2013-09-13 10:02:00,
2013-09-13 04:07:00,54.6,49.5,30.03,WSW,240,0.0,1.0,83,0.00,CLR,CLR,0.00,WeatherDisplay:10.34,2013-09-13 10:07:00,
2013-09-13 04:12:00,54.5,49.4,30.03,WSW,240,0.0,1.0,83,0.00,CLR,CLR,0.00,WeatherDisplay:10.34,2013-09-13 10:12:00,
2013-09-13 04:17:00,54.5,49.4,30.03,WSW,240,1.0,2.0,83,0.00,CLR,CLR,0.00,WeatherDisplay:10.34,2013-09-13 10:17:00,
2013-09-13 04:22:00,54.5,49.8,30.02,WSW,240,3.0,3.0,84,0.00,CLR,CLR,0.00,WeatherDisplay:10.34,2013-09-13 10:22:00,
2013-09-13 04:27:00,54.6,49.9,30.02,WSW,240,6.0,7.0,84,0.00,CLR,CLR,0.00,WeatherDisplay:10.34,2013-09-13 10:27:00,
2013-09-13 04:32:00,54.8,50.1,30.02,WSW,240,4.0,4.0,84,0.00,CLR,CLR,0.00,WeatherDisplay:10.34,2013-09-13 10:32:00,
2013-09-13 04:37:00,54.9,50.2,30.02,WSW,240,2.0,3.0,84,0.00,CLR,CLR,0.00,WeatherDisplay:10.34,2013-09-13 10:37:00,
2013-09-13 04:42:00,54.9,50.2,30.02,SW,230,4.0,5.0,84,0.00,CLR,CLR,0.00,WeatherDisplay:10.34,2013-09-13 10:42:00,
2013-09-13 04:47:00,54.9,49.8,30.02,SW,230,4.0,5.0,83,0.00,CLR,CLR,0.00,WeatherDisplay:10.34,2013-09-13 10:47:00,
2013-09-13 04:52:00,54.9,49.8,30.02,WSW,253,5.0,7.0,83,0.00,CLR,CLR,0.00,WeatherDisplay:10.34,2013-09-13 10:52:00,
2013-09-13 04:57:00,54.8,49.7,30.02,WSW,244,8.0,8.0,83,0.00,CLR,CLR,0.00,WeatherDisplay:10.34,2013-09-13 10:57:00,
2013-09-13 05:02:00,54.8,49.7,30.02,SW,230,5.0,5.0,83,0.00,CLR,CLR,0.00,WeatherDisplay:10.34,2013-09-13 11:02:00,
2013-09-13 05:07:00,54.8,49.7,30.02,SW,226,4.0,8.0,83,0.00,CLR,CLR,0.00,WeatherDisplay:10.34,2013-09-13 11:07:00,
2013-09-13 05:12:00,54.7,49.6,30.01,SW,233,4.0,5.0,83,0.00,CLR,CLR,0.00,WeatherDisplay:10.34,2013-09-13 11:12:00,
2013-09-13 05:17:00,54.6,49.5,30.01,SW,230,7.0,7.0,83,0.00,CLR,CLR,0.00,WeatherDisplay:10.34,2013-09-13 11:17:00,
2013-09-13 05:22:00,54.5,49.8,30.01,SW,222,5.0,5.0,84,0.00,CLR,CLR,0.00,WeatherDisplay:10.34,2013-09-13 11:22:00,
2013-09-13 05:27:00,54.5,49.8,30.01,SW,227,4.0,5.0,84,0.00,CLR,CLR,0.00,WeatherDisplay:10.34,2013-09-13 11:27:00,
2013-09-13 05:32:00,54.5,49.8,30.00,SW,215,3.0,3.0,84,0.00,CLR,CLR,0.00,WeatherDisplay:10.34,2013-09-13 11:32:00,
2013-09-13 05:37:00,54.6,49.9,30.00,SW,215,3.0,3.0,84,0.00,CLR,CLR,0.00,WeatherDisplay:10.34,2013-09-13 11:37:00,
2013-09-13 05:42:00,54.6,49.5,30.00,SW,215,2.0,2.0,83,0.00,CLR,CLR,0.00,WeatherDisplay:10.34,2013-09-13 11:42:00,
2013-09-13 05:47:00,54.6,49.5,30.00,SW,216,0.0,1.0,83,0.00,CLR,CLR,0.00,WeatherDisplay:10.34,2013-09-13 11:47:00,
2013-09-13 05:52:00,54.6,49.5,30.00,SW,215,0.0,0.0,83,0.00,CLR,CLR,0.00,WeatherDisplay:10.34,2013-09-13 11:52:00,
2013-09-13 05:57:00,54.6,49.5,30.00,SW,215,0.0,0.0,83,0.00,CLR,CLR,0.00,WeatherDisplay:10.34,2013-09-13 11:57:00,
2013-09-13 06:02:00,54.6,49.2,30.00,SW,216,0.0,0.0,82,0.00,OVC,OVC,0.00,WeatherDisplay:10.34,2013-09-13 12:02:00,
2013-09-13 06:07:00,54.5,49.1,30.00,SW,216,0.0,0.0,82,0.00,OVC,OVC,0.00,WeatherDisplay:10.34,2013-09-13 12:07:00,
2013-09-13 06:12:00,54.5,49.1,30.00,SW,215,0.0,0.0,82,0.00,OVC,OVC,0.00,WeatherDisplay:10.34,2013-09-13 12:12:00,
2013-09-13 06:17:00,54.4,49.0,30.00,SW,216,0.0,0.0,82,0.00,OVC,OVC,0.00,WeatherDisplay:10.34,2013-09-13 12:17:00,
2013-09-13 06:22:00,54.4,49.0,30.00,SW,215,0.0,0.0,82,0.00,OVC,OVC,0.00,WeatherDisplay:10.34,2013-09-13 12:22:00,
2013-09-13 06:27:00,54.2,48.8,30.00,SW,215,0.0,0.0,82,0.00,OVC,OVC,0.00,WeatherDisplay:10.34,2013-09-13 12:27:00,
2013-09-13 06:32:00,54.0,49.0,30.00,SW,215,0.0,1.0,83,0.00,OVC,OVC,0.00,WeatherDisplay:10.34,2013-09-13 12:32:00,
2013-09-13 06:37:00,53.8,48.8,30.00,SW,215,0.0,0.0,83,0.00,OVC,OVC,0.00,WeatherDisplay:10.34,2013-09-13 12:37:00,
2013-09-13 06:42:00,53.7,49.0,29.99,SW,216,0.0,1.0,84,0.00,OVC,OVC,0.00,WeatherDisplay:10.34,2013-09-13 12:42:00,
2013-09-13 06:47:00,53.5,48.8,29.99,SW,216,0.0,0.0,84,0.00,OVC,OVC,0.00,WeatherDisplay:10.34,2013-09-13 12:47:00,
2013-09-13 06:52:00,53.4,48.7,29.99,SW,216,0.0,0.0,84,0.00,OVC,OVC,0.00,WeatherDisplay:10.34,2013-09-13 12:52:00,
2013-09-13 06:57:00,53.4,48.7,29.99,SW,216,0.0,0.0,84,0.00,OVC,OVC,0.00,WeatherDisplay:10.34,2013-09-13 12:57:00,
2013-09-13 07:02:00,53.3,48.6,29.99,SW,215,0.0,0.0,84,0.00,OVC,OVC,0.00,WeatherDisplay:10.34,2013-09-13 13:02:00,
2013-09-13 07:07:00,53.2,48.5,29.99,SW,215,0.0,0.0,84,0.00,OVC,OVC,0.00,WeatherDisplay:10.34,2013-09-13 13:07:00,
2013-09-13 07:12:00,53.2,48.5,29.99,SW,215,2.0,2.0,84,0.00,OVC,OVC,0.00,WeatherDisplay:10.34,2013-09-13 13:12:00,
2013-09-13 07:17:00,53.2,48.8,29.99,SW,216,0.0,0.0,85,0.00,OVC,OVC,0.00,WeatherDisplay:10.34,2013-09-13 13:17:00,
2013-09-13 07:22:00,53.2,48.8,29.99,SW,215,0.0,0.0,85,0.00,OVC,OVC,0.00,WeatherDisplay:10.34,2013-09-13 13:22:00,
2013-09-13 07:27:00,53.2,48.8,29.99,SW,216,0.0,0.0,85,0.00,OVC,OVC,0.00,WeatherDisplay:10.34,2013-09-13 13:27:00,
2013-09-13 07:32:00,53.4,49.3,29.99,SW,216,0.0,0.0,86,0.00,CLR,CLR,0.00,WeatherDisplay:10.34,2013-09-13 13:32:00,
2013-09-13 07:37:00,53.6,49.5,29.99,SW,216,0.0,1.0,86,0.00,CLR,CLR,0.00,WeatherDisplay:10.34,2013-09-13 13:37:00,
2013-09-13 07:42:00,53.9,49.8,29.98,SW,216,0.0,0.0,86,0.00,CLR,CLR,0.00,WeatherDisplay:10.34,2013-09-13 13:42:00,
2013-09-13 07:47:00,54.2,50.4,29.98,SW,216,0.0,0.0,87,0.00,CLR,CLR,0.00,WeatherDisplay:10.34,2013-09-13 13:47:00,
2013-09-13 07:52:00,54.6,50.8,29.98,SW,215,0.0,0.0,87,0.00,CLR,CLR,0.00,WeatherDisplay:10.34,2013-09-13 13:52:00,
2013-09-13 07:57:00,55.1,51.0,29.98,SW,216,0.0,0.0,86,0.00,CLR,CLR,0.00,WeatherDisplay:10.34,2013-09-13 13:57:00,
2013-09-13 08:02:00,55.6,51.2,29.98,SW,216,0.0,0.0,85,0.00,CLR,CLR,0.00,WeatherDisplay:10.34,2013-09-13 14:02:00,
2013-09-13 08:07:00,56.0,51.6,29.98,SW,216,0.0,0.0,85,0.00,CLR,CLR,0.00,WeatherDisplay:10.34,2013-09-13 14:07:00,
2013-09-13 08:12:00,56.5,51.7,29.98,SW,215,0.0,0.0,84,0.00,CLR,CLR,0.00,WeatherDisplay:10.34,2013-09-13 14:12:00,
2013-09-13 08:17:00,56.9,51.8,29.98,SW,215,0.0,0.0,83,0.00,CLR,CLR,0.00,WeatherDisplay:10.34,2013-09-13 14:17:00,
2013-09-13 08:22:00,57.2,51.8,29.97,SW,215,0.0,0.0,82,0.00,CLR,CLR,0.00,WeatherDisplay:10.34,2013-09-13 14:22:00,
2013-09-13 08:27:00,57.5,52.0,29.97,SW,215,0.0,0.0,82,0.00,FEW,FEW,0.00,WeatherDisplay:10.34,2013-09-13 14:27:00,
2013-09-13 08:32:00,57.7,51.9,29.97,SW,216,0.0,0.0,81,0.00,FEW,FEW,0.00,WeatherDisplay:10.34,2013-09-13 14:32:00,
2013-09-13 08:37:00,57.9,52.1,29.97,SW,216,0.0,0.0,81,0.00,SCT,SCT,0.00,WeatherDisplay:10.34,2013-09-13 14:37:00,
2013-09-13 08:42:00,58.1,52.0,29.96,SW,216,0.0,1.0,80,0.00,SCT,SCT,0.00,WeatherDisplay:10.34,2013-09-13 14:42:00,
2013-09-13 08:47:00,58.4,52.3,29.96,SW,216,3.0,3.0,80,0.00,SCT,SCT,0.00,WeatherDisplay:10.34,2013-09-13 14:47:00,
2013-09-13 08:52:00,58.6,52.1,29.96,SW,215,0.0,1.0,79,0.00,SCT,SCT,0.00,WeatherDisplay:10.34,2013-09-13 14:52:00,
2013-09-13 08:57:00,58.9,52.1,29.96,SW,216,0.0,0.0,78,0.00,SCT,SCT,0.00,WeatherDisplay:10.34,2013-09-13 14:57:00,
2013-09-13 09:02:00,59.0,51.8,29.96,SW,216,0.0,0.0,77,0.00,SCT,SCT,0.00,WeatherDisplay:10.34,2013-09-13 15:02:00,
2013-09-13 09:07:00,59.0,51.8,29.96,SW,216,0.0,0.0,77,0.00,SCT,SCT,0.00,WeatherDisplay:10.34,2013-09-13 15:07:00,
2013-09-13 09:12:00,59.3,52.1,29.96,SW,216,1.0,1.0,77,0.00,SCT,SCT,0.00,WeatherDisplay:10.34,2013-09-13 15:12:00,
2013-09-13 09:17:00,59.6,52.4,29.96,SW,216,0.0,0.0,77,0.00,SCT,SCT,0.00,WeatherDisplay:10.34,2013-09-13 15:17:00,
2013-09-13 09:22:00,59.8,52.6,29.96,SW,216,0.0,0.0,77,0.00,BKN,BKN,0.00,WeatherDisplay:10.34,2013-09-13 15:22:00,
2013-09-13 09:27:00,60.1,52.5,29.96,SSE,150,2.0,2.0,76,0.00,SCT,SCT,0.00,WeatherDisplay:10.34,2013-09-13 15:27:00,
2013-09-13 09:32:00,60.3,52.3,29.96,SE,128,2.0,2.0,75,0.00,SCT,SCT,0.00,WeatherDisplay:10.34,2013-09-13 15:32:00,
2013-09-13 09:37:00,60.6,52.6,29.96,SE,128,2.0,2.0,75,0.00,SCT,SCT,0.00,WeatherDisplay:10.34,2013-09-13 15:37:00,
2013-09-13 09:42:00,60.8,52.5,29.96,SE,126,3.0,3.0,74,0.00,BKN,BKN,0.00,WeatherDisplay:10.34,2013-09-13 15:42:00,
2013-09-13 09:47:00,61.0,52.7,29.96,SE,125,2.0,2.0,74,0.00,BKN,BKN,0.00,WeatherDisplay:10.34,2013-09-13 15:47:00,
2013-09-13 09:52:00,61.2,52.8,29.96,NE,54,3.0,3.0,74,0.00,BKN,BKN,0.00,WeatherDisplay:10.34,2013-09-13 15:52:00,
2013-09-13 09:57:00,61.4,53.0,29.96,NE,53,2.0,2.0,74,0.00,SCT,SCT,0.00,WeatherDisplay:10.34,2013-09-13 15:57:00,
2013-09-13 10:02:00,61.6,53.2,29.96,North,360,2.0,3.0,74,0.00,SCT,SCT,0.00,WeatherDisplay:10.34,2013-09-13 16:02:00,
2013-09-13 10:07:00,61.9,53.1,29.96,North,360,0.0,0.0,73,0.00,SCT,SCT,0.00,WeatherDisplay:10.34,2013-09-13 16:07:00,
2013-09-13 10:12:00,62.1,53.3,29.96,North,360,0.0,1.0,73,0.00,BKN,BKN,0.00,WeatherDisplay:10.34,2013-09-13 16:12:00,
2013-09-13 10:17:00,62.4,53.6,29.96,North,11,3.0,5.0,73,0.00,BKN,BKN,0.00,WeatherDisplay:10.34,2013-09-13 16:17:00,
2013-09-13 10:22:00,62.5,53.7,29.96,North,360,1.0,2.0,73,0.00,BKN,BKN,0.00,WeatherDisplay:10.34,2013-09-13 16:22:00,
2013-09-13 10:27:00,62.6,53.8,29.96,North,355,3.0,3.0,73,0.00,BKN,BKN,0.00,WeatherDisplay:10.34,2013-09-13 16:27:00,
2013-09-13 10:32:00,62.7,54.3,29.96,NNE,21,3.0,3.0,74,0.00,BKN,BKN,0.00,WeatherDisplay:10.34,2013-09-13 16:32:00,
2013-09-13 10:37:00,63.0,54.6,29.96,North,355,3.0,3.0,74,0.00,BKN,BKN,0.00,WeatherDisplay:10.34,2013-09-13 16:37:00,
2013-09-13 10:42:00,63.2,55.1,29.96,NNW,341,3.0,3.0,75,0.00,BKN,BKN,0.00,WeatherDisplay:10.34,2013-09-13 16:42:00,
2013-09-13 10:47:00,63.5,55.8,29.96,NNW,341,1.0,2.0,76,0.00,BKN,BKN,0.00,WeatherDisplay:10.34,2013-09-13 16:47:00,
2013-09-13 10:52:00,63.8,55.4,29.96,NNW,341,0.0,0.0,74,0.00,BKN,BKN,0.00,WeatherDisplay:10.34,2013-09-13 16:52:00,
2013-09-13 10:57:00,64.3,55.8,29.96,NNW,341,0.0,2.0,74,0.00,SCT,SCT,0.00,WeatherDisplay:10.34,2013-09-13 16:57:00,
2013-09-13 11:02:00,64.8,55.2,29.96,ESE,117,2.0,5.0,71,0.00,CLR,CLR,0.00,WeatherDisplay:10.34,2013-09-13 17:02:00,
2013-09-13 11:07:00,66.2,54.1,29.94,ESE,118,10.0,12.0,65,0.00,FEW,FEW,0.00,WeatherDisplay:10.34,2013-09-13 17:07:00,
2013-09-13 11:12:00,68.0,53.1,29.94,SE,142,14.0,14.0,59,0.00,SCT,SCT,0.00,WeatherDisplay:10.34,2013-09-13 17:12:00,
2013-09-13 11:17:00,68.8,52.9,29.93,SSE,164,8.0,8.0,57,0.00,BKN,BKN,0.00,WeatherDisplay:10.34,2013-09-13 17:17:00,
2013-09-13 11:22:00,68.9,52.6,29.93,SE,145,11.0,11.0,56,0.00,BKN,BKN,0.00,WeatherDisplay:10.34,2013-09-13 17:22:00,
2013-09-13 11:27:00,68.9,53.5,29.93,SE,137,7.0,9.0,58,0.00,BKN,BKN,0.00,WeatherDisplay:10.34,2013-09-13 17:27:00,
2013-09-13 11:32:00,69.0,53.1,29.93,ESE,113,6.0,7.0,57,0.00,BKN,BKN,0.00,WeatherDisplay:10.34,2013-09-13 17:32:00,
2013-09-13 11:37:00,69.2,53.3,29.93,SE,130,6.0,7.0,57,0.00,BKN,BKN,0.00,WeatherDisplay:10.34,2013-09-13 17:37:00,
2013-09-13 11:42:00,69.3,52.9,29.93,East,87,7.0,7.0,56,0.00,BKN,BKN,0.00,WeatherDisplay:10.34,2013-09-13 17:42:00,
2013-09-13 11:47:00,69.4,53.5,29.93,East,90,6.0,8.0,57,0.00,OVC,OVC,0.00,WeatherDisplay:10.34,2013-09-13 17:47:00,
2013-09-13 11:52:00,69.4,53.5,29.93,East,101,9.0,10.0,57,0.00,OVC,OVC,0.00,WeatherDisplay:10.34,2013-09-13 17:52:00,
2013-09-13 11:57:00,69.2,53.3,29.93,East,88,8.0,12.0,57,0.00,OVC,OVC,0.00,WeatherDisplay:10.34,2013-09-13 17:57:00,
2013-09-13 12:02:00,69.1,53.2,29.93,SE,132,10.0,12.0,57,0.00,OVC,OVC,0.00,WeatherDisplay:10.34,2013-09-13 18:02:00,
2013-09-13 12:07:00,68.9,53.5,29.93,East,95,13.0,13.0,58,0.00,OVC,OVC,0.00,WeatherDisplay:10.34,2013-09-13 18:07:00,
2013-09-13 12:12:00,68.5,54.1,29.93,East,88,10.0,13.0,60,0.00,OVC,OVC,0.00,WeatherDisplay:10.34,2013-09-13 18:12:00,
2013-09-13 12:17:00,68.2,54.2,29.93,ESE,114,9.0,10.0,61,0.00,OVC,OVC,0.00,WeatherDisplay:10.34,2013-09-13 18:17:00,
2013-09-13 12:22:00,68.0,54.5,29.93,ESE,110,11.0,11.0,62,0.00,OVC,OVC,0.00,WeatherDisplay:10.34,2013-09-13 18:22:00,
2013-09-13 12:27:00,67.9,54.4,29.93,ESE,110,10.0,10.0,62,0.00,OVC,OVC,0.00,WeatherDisplay:10.34,2013-09-13 18:27:00,
2013-09-13 12:32:00,67.8,54.3,29.93,ESE,111,13.0,13.0,62,0.00,OVC,OVC,0.00,WeatherDisplay:10.34,2013-09-13 18:32:00,
2013-09-13 12:37:00,67.7,54.2,29.93,SE,128,8.0,8.0,62,0.00,OVC,OVC,0.00,WeatherDisplay:10.34,2013-09-13 18:37:00,
2013-09-13 12:42:00,67.7,54.2,29.91,ESE,103,3.0,5.0,62,0.00,OVC,OVC,0.00,WeatherDisplay:10.34,2013-09-13 18:42:00,
2013-09-13 12:47:00,67.8,54.7,29.91,ESE,111,3.0,3.0,63,0.00,OVC,OVC,0.00,WeatherDisplay:10.34,2013-09-13 18:47:00,
2013-09-13 12:52:00,67.8,54.3,29.91,East,87,2.0,2.0,62,0.00,OVC,OVC,0.00,WeatherDisplay:10.34,2013-09-13 18:52:00,
2013-09-13 12:57:00,67.8,54.7,29.91,East,83,1.0,3.0,63,0.00,OVC,OVC,0.00,WeatherDisplay:10.34,2013-09-13 18:57:00,
2013-09-13 13:02:00,67.9,54.4,29.91,East,85,1.0,3.0,62,0.00,OVC,OVC,0.00,WeatherDisplay:10.34,2013-09-13 19:02:00,
2013-09-13 13:07:00,68.1,54.6,29.91,SE,133,3.0,3.0,62,0.00,OVC,OVC,0.00,WeatherDisplay:10.34,2013-09-13 19:07:00,
2013-09-13 13:12:00,68.3,54.3,29.91,East,98,4.0,4.0,61,0.00,OVC,OVC,0.00,WeatherDisplay:10.34,2013-09-13 19:12:00,
2013-09-13 13:17:00,68.4,54.9,29.91,East,80,5.0,7.0,62,0.00,OVC,OVC,0.00,WeatherDisplay:10.34,2013-09-13 19:17:00,
2013-09-13 13:22:00,68.4,54.9,29.90,East,81,3.0,3.0,62,0.00,OVC,OVC,0.00,WeatherDisplay:10.34,2013-09-13 19:22:00,
2013-09-13 13:27:00,68.4,55.3,29.90,NNE,26,6.0,7.0,63,0.00,OVC,OVC,0.00,WeatherDisplay:10.34,2013-09-13 19:27:00,
2013-09-13 13:32:00,68.2,55.1,29.90,ENE,57,3.0,3.0,63,0.00,OVC,OVC,0.00,WeatherDisplay:10.34,2013-09-13 19:32:00,
2013-09-13 13:37:00,68.2,54.7,29.90,ENE,57,1.0,1.0,62,0.00,OVC,OVC,0.00,WeatherDisplay:10.34,2013-09-13 19:37:00,
2013-09-13 13:42:00,68.3,54.8,29.90,NE,56,0.0,1.0,62,0.00,OVC,OVC,0.00,WeatherDisplay:10.34,2013-09-13 19:42:00,
2013-09-13 13:47:00,68.3,54.8,29.90,ENE,61,3.0,3.0,62,0.00,OVC,OVC,0.00,WeatherDisplay:10.34,2013-09-13 19:47:00,
2013-09-13 13:52:00,68.3,55.2,29.90,ENE,61,0.0,1.0,63,0.00,OVC,OVC,0.00,WeatherDisplay:10.34,2013-09-13 19:52:00,
2013-09-13 13:57:00,68.4,55.3,29.88,NE,41,0.0,1.0,63,0.00,OVC,OVC,0.00,WeatherDisplay:10.34,2013-09-13 19:57:00,
2013-09-13 14:02:00,68.4,54.9,29.88,West,280,0.0,1.0,62,0.00,OVC,OVC,0.00,WeatherDisplay:10.34,2013-09-13 20:02:00,
2013-09-13 14:07:00,68.4,55.7,29.88,West,280,2.0,3.0,64,0.00,OVC,OVC,0.00,WeatherDisplay:10.34,2013-09-13 20:07:00,
2013-09-13 14:12:00,68.5,55.8,29.88,West,276,2.0,5.0,64,0.00,OVC,OVC,0.00,WeatherDisplay:10.34,2013-09-13 20:12:00,
2013-09-13 14:17:00,68.4,55.3,29.88,West,277,3.0,3.0,63,0.00,OVC,OVC,0.00,WeatherDisplay:10.34,2013-09-13 20:17:00,
2013-09-13 14:22:00,68.3,55.6,29.88,West,277,1.0,2.0,64,0.00,OVC,OVC,0.00,WeatherDisplay:10.34,2013-09-13 20:22:00,
2013-09-13 14:27:00,68.2,55.6,29.88,West,263,3.0,3.0,64,0.00,OVC,OVC,0.00,WeatherDisplay:10.34,2013-09-13 20:27:00,
2013-09-13 14:32:00,68.2,56.0,29.88,West,263,0.0,0.0,65,0.00,OVC,OVC,0.00,WeatherDisplay:10.34,2013-09-13 20:32:00,
2013-09-13 14:37:00,68.1,56.3,29.88,West,263,0.0,0.0,66,0.00,OVC,OVC,0.00,WeatherDisplay:10.34,2013-09-13 20:37:00,
2013-09-13 14:42:00,68.1,55.5,29.87,NNE,30,4.0,7.0,64,0.00,OVC,OVC,0.00,WeatherDisplay:10.34,2013-09-13 20:42:00,
2013-09-13 14:47:00,68.0,55.4,29.87,NE,40,0.0,1.0,64,0.00,OVC,OVC,0.00,WeatherDisplay:10.34,2013-09-13 20:47:00,
2013-09-13 14:52:00,67.9,56.1,29.88,SW,229,4.0,4.0,66,0.00,OVC,OVC,0.00,WeatherDisplay:10.34,2013-09-13 20:52:00,
2013-09-13 14:57:00,67.7,55.9,29.88,SW,229,0.0,1.0,66,0.00,OVC,OVC,0.00,WeatherDisplay:10.34,2013-09-13 20:57:00,
2013-09-13 15:02:00,67.5,55.7,29.88,SW,229,1.0,2.0,66,0.00,OVC,OVC,0.00,WeatherDisplay:10.34,2013-09-13 21:02:00,
2013-09-13 15:07:00,67.4,55.6,29.88,SW,229,1.0,3.0,66,0.00,OVC,OVC,0.00,WeatherDisplay:10.34,2013-09-13 21:07:00,
2013-09-13 15:12:00,67.3,56.4,29.88,NNE,28,6.0,7.0,68,0.00,OVC,OVC,0.00,WeatherDisplay:10.34,2013-09-13 21:12:00,
2013-09-13 15:17:00,67.0,56.9,29.88,ENE,61,2.0,2.0,70,0.00,OVC,OVC,0.00,WeatherDisplay:10.34,2013-09-13 21:17:00,
2013-09-13 15:22:00,66.8,57.5,29.88,East,82,4.0,4.0,72,0.00,OVC,OVC,0.00,WeatherDisplay:10.34,2013-09-13 21:22:00,
2013-09-13 15:27:00,66.4,57.5,29.88,ENE,70,5.0,5.0,73,0.00,OVC,OVC,0.00,WeatherDisplay:10.34,2013-09-13 21:27:00,
2013-09-13 15:32:00,66.1,57.2,29.87,East,90,3.0,3.0,73,0.00,OVC,OVC,0.00,WeatherDisplay:10.34,2013-09-13 21:32:00,
2013-09-13 15:37:00,65.9,57.7,29.87,NNE,27,3.0,3.0,75,0.01,RA,RA,0.01,WeatherDisplay:10.34,2013-09-13 21:37:00,
2013-09-13 15:42:00,65.7,57.9,29.87,ENE,71,4.0,4.0,76,0.01,RA,RA,0.01,WeatherDisplay:10.34,2013-09-13 21:42:00,
2013-09-13 15:47:00,65.5,57.7,29.87,East,100,5.0,7.0,76,0.01,OVC,OVC,0.01,WeatherDisplay:10.34,2013-09-13 21:47:00,
2013-09-13 15:52:00,65.4,58.0,29.87,East,94,5.0,7.0,77,0.01,OVC,OVC,0.02,WeatherDisplay:10.34,2013-09-13 21:52:00,
2013-09-13 15:57:00,65.2,57.8,29.87,East,101,7.0,9.0,77,0.02,RA,RA,0.02,WeatherDisplay:10.34,2013-09-13 21:57:00,
2013-09-13 16:02:00,65.0,58.0,29.87,East,96,5.0,7.0,78,0.02,RA,RA,0.02,WeatherDisplay:10.34,2013-09-13 22:02:00,
2013-09-13 16:07:00,64.8,58.1,29.87,East,88,4.0,7.0,79,0.02,OVC,OVC,0.02,WeatherDisplay:10.34,2013-09-13 22:07:00,
2013-09-13 16:12:00,64.7,58.0,29.86,ENE,77,5.0,7.0,79,0.02,OVC,OVC,0.02,WeatherDisplay:10.34,2013-09-13 22:12:00,
2013-09-13 16:17:00,64.5,57.8,29.86,East,96,2.0,3.0,79,0.02,OVC,OVC,0.02,WeatherDisplay:10.34,2013-09-13 22:17:00,
2013-09-13 16:22:00,64.4,57.7,29.86,East,92,5.0,5.0,79,0.03,RA,RA,0.03,WeatherDisplay:10.34,2013-09-13 22:22:00,
2013-09-13 16:27:00,64.3,57.6,29.86,ESE,123,8.0,9.0,79,0.03,RA,RA,0.03,WeatherDisplay:10.34,2013-09-13 22:27:00,
2013-09-13 16:32:00,64.2,57.5,29.86,SE,125,8.0,9.0,79,0.03,OVC,OVC,0.03,WeatherDisplay:10.34,2013-09-13 22:32:00,
2013-09-13 16:37:00,64.1,58.1,29.86,SE,141,9.0,9.0,81,0.02,OVC,OVC,0.03,WeatherDisplay:10.34,2013-09-13 22:37:00,
2013-09-13 16:42:00,63.8,57.5,29.87,ESE,119,10.0,10.0,80,0.02,OVC,OVC,0.03,WeatherDisplay:10.34,2013-09-13 22:42:00,
2013-09-13 16:47:00,63.5,57.2,29.87,ESE,103,12.0,12.0,80,0.02,OVC,OVC,0.03,WeatherDisplay:10.34,2013-09-13 22:47:00,
2013-09-13 16:52:00,63.0,57.1,29.87,ESE,109,17.0,17.0,81,0.02,OVC,OVC,0.03,WeatherDisplay:10.34,2013-09-13 22:52:00,
2013-09-13 16:57:00,62.7,57.5,29.87,ESE,111,16.0,16.0,83,0.01,OVC,OVC,0.03,WeatherDisplay:10.34,2013-09-13 22:57:00,
2013-09-13 17:02:00,62.5,57.3,29.87,East,82,13.0,13.0,83,0.01,OVC,OVC,0.03,WeatherDisplay:10.34,2013-09-13 23:02:00,
2013-09-13 17:07:00,62.2,57.3,29.87,ESE,109,11.0,14.0,84,0.01,OVC,OVC,0.03,WeatherDisplay:10.34,2013-09-13 23:07:00,
2013-09-13 17:12:00,62.0,57.1,29.86,East,94,11.0,13.0,84,0.01,OVC,OVC,0.03,WeatherDisplay:10.34,2013-09-13 23:12:00,
2013-09-13 17:17:00,61.8,57.2,29.86,East,97,12.0,13.0,85,0.01,OVC,OVC,0.03,WeatherDisplay:10.34,2013-09-13 23:17:00,
2013-09-13 17:22:00,61.6,57.0,29.87,ESE,105,11.0,11.0,85,0.00,OVC,OVC,0.03,WeatherDisplay:10.34,2013-09-13 23:22:00,
2013-09-13 17:27:00,61.6,57.4,29.87,SE,135,14.0,15.0,86,0.00,OVC,OVC,0.03,WeatherDisplay:10.34,2013-09-13 23:27:00,
2013-09-13 17:32:00,61.5,57.6,29.86,SSE,148,14.0,14.0,87,0.00,OVC,OVC,0.03,WeatherDisplay:10.34,2013-09-13 23:32:00,
2013-09-13 17:37:00,61.4,57.5,29.86,SE,142,13.0,14.0,87,0.00,OVC,OVC,0.03,WeatherDisplay:10.34,2013-09-13 23:37:00,
2013-09-13 17:42:00,61.4,57.8,29.86,East,94,18.0,18.0,88,0.00,OVC,OVC,0.03,WeatherDisplay:10.34,2013-09-13 23:42:00,
2013-09-13 17:47:00,61.3,57.7,29.86,East,94,20.0,20.0,88,0.00,OVC,OVC,0.03,WeatherDisplay:10.34,2013-09-13 23:47:00,
2013-09-13 17:52:00,61.3,57.7,29.86,ESE,102,13.0,13.0,88,0.00,OVC,OVC,0.03,WeatherDisplay:10.34,2013-09-13 23:52:00,
2013-09-13 17:57:00,61.4,57.8,29.86,SE,126,14.0,14.0,88,0.00,OVC,OVC,0.03,WeatherDisplay:10.34,2013-09-13 23:57:00,
2013-09-13 18:02:00,61.4,57.8,29.86,SE,141,10.0,10.0,88,0.00,OVC,OVC,0.03,WeatherDisplay:10.34,2013-09-14 00:02:00,
2013-09-13 18:07:00,61.3,57.7,29.86,SE,146,10.0,12.0,88,0.00,OVC,OVC,0.03,WeatherDisplay:10.34,2013-09-14 00:07:00,
2013-09-13 18:12:00,61.2,57.3,29.86,East,91,8.0,9.0,87,0.00,OVC,OVC,0.03,WeatherDisplay:10.34,2013-09-14 00:12:00,
2013-09-13 18:17:00,61.1,57.2,29.86,East,99,9.0,9.0,87,0.00,OVC,OVC,0.03,WeatherDisplay:10.34,2013-09-14 00:17:00,
2013-09-13 18:22:00,61.0,56.5,29.87,East,96,14.0,16.0,85,0.00,OVC,OVC,0.03,WeatherDisplay:10.34,2013-09-14 00:22:00,
2013-09-13 18:27:00,61.1,56.6,29.87,SE,128,11.0,12.0,85,0.00,OVC,OVC,0.03,WeatherDisplay:10.34,2013-09-14 00:27:00,
2013-09-13 18:32:00,61.1,56.6,29.86,ESE,109,6.0,6.0,85,0.00,OVC,OVC,0.03,WeatherDisplay:10.34,2013-09-14 00:32:00,
2013-09-13 18:37:00,61.2,56.7,29.86,ESE,105,6.0,7.0,85,0.00,OVC,OVC,0.03,WeatherDisplay:10.34,2013-09-14 00:37:00,
2013-09-13 18:42:00,61.2,56.3,29.85,East,80,4.0,4.0,84,0.00,OVC,OVC,0.03,WeatherDisplay:10.34,2013-09-14 00:42:00,
2013-09-13 18:47:00,61.3,56.4,29.85,East,84,2.0,2.0,84,0.00,OVC,OVC,0.03,WeatherDisplay:10.34,2013-09-14 00:47:00,
2013-09-13 18:52:00,61.2,56.3,29.86,SSE,167,6.0,6.0,84,0.00,OVC,OVC,0.03,WeatherDisplay:10.34,2013-09-14 00:52:00,
2013-09-13 18:57:00,61.2,56.3,29.86,South,171,2.0,2.0,84,0.00,OVC,OVC,0.03,WeatherDisplay:10.34,2013-09-14 00:57:00,
2013-09-13 19:02:00,61.1,56.2,29.86,SSE,148,1.0,2.0,84,0.00,OVC,OVC,0.03,WeatherDisplay:10.34,2013-09-14 01:02:00,
2013-09-13 19:07:00,61.1,56.6,29.86,SSE,148,0.0,0.0,85,0.00,OVC,OVC,0.03,WeatherDisplay:10.34,2013-09-14 01:07:00,
2013-09-13 19:12:00,61.0,56.5,29.86,SSE,148,1.0,1.0,85,0.00,OVC,OVC,0.03,WeatherDisplay:10.34,2013-09-14 01:12:00,
2013-09-13 19:17:00,60.9,56.4,29.86,SSE,148,0.0,1.0,85,0.00,OVC,OVC,0.03,WeatherDisplay:10.34,2013-09-14 01:17:00,
2013-09-13 19:22:00,60.8,56.3,29.86,SE,145,0.0,0.0,85,0.00,OVC,OVC,0.03,WeatherDisplay:10.34,2013-09-14 01:22:00,
2013-09-13 19:27:00,60.7,56.2,29.86,SE,145,0.0,1.0,85,0.00,OVC,OVC,0.03,WeatherDisplay:10.34,2013-09-14 01:27:00,
2013-09-13 19:32:00,60.5,56.3,29.86,SE,138,0.0,0.0,86,0.00,OVC,OVC,0.03,WeatherDisplay:10.34,2013-09-14 01:32:00,
2013-09-13 19:37:00,60.3,56.1,29.86,NNW,345,2.0,2.0,86,0.00,OVC,OVC,0.03,WeatherDisplay:10.34,2013-09-14 01:37:00,
2013-09-13 19:42:00,60.1,55.9,29.86,NNW,345,0.0,0.0,86,0.00,OVC,OVC,0.03,WeatherDisplay:10.34,2013-09-14 01:42:00,
2013-09-13 19:47:00,60.0,56.1,29.86,NNW,345,0.0,0.0,87,0.00,OVC,OVC,0.03,WeatherDisplay:10.34,2013-09-14 01:47:00,
2013-09-13 19:52:00,59.8,55.9,29.86,NNW,345,0.0,1.0,87,0.00,OVC,OVC,0.03,WeatherDisplay:10.34,2013-09-14 01:52:00,
2013-09-13 19:57:00,59.6,55.7,29.86,NNW,345,0.0,1.0,87,0.00,OVC,OVC,0.03,WeatherDisplay:10.34,2013-09-14 01:57:00,
2013-09-13 20:02:00,59.5,55.9,29.86,WNW,286,0.0,0.0,88,0.00,CLR,CLR,0.03,WeatherDisplay:10.34,2013-09-14 02:02:00,
2013-09-13 20:07:00,59.4,55.8,29.86,WNW,286,0.0,0.0,88,0.00,CLR,CLR,0.03,WeatherDisplay:10.34,2013-09-14 02:07:00,
2013-09-13 20:12:00,59.3,55.7,29.87,WNW,286,0.0,1.0,88,0.00,CLR,CLR,0.03,WeatherDisplay:10.34,2013-09-14 02:12:00,
2013-09-13 20:17:00,59.2,55.6,29.87,WNW,286,2.0,2.0,88,0.00,CLR,CLR,0.03,WeatherDisplay:10.34,2013-09-14 02:17:00,
2013-09-13 20:22:00,59.0,55.4,29.87,WNW,286,0.0,0.0,88,0.00,CLR,CLR,0.03,WeatherDisplay:10.34,2013-09-14 02:22:00,
2013-09-13 20:27:00,59.0,55.8,29.87,WNW,286,2.0,2.0,89,0.00,CLR,CLR,0.03,WeatherDisplay:10.34,2013-09-14 02:27:00,
2013-09-13 20:32:00,59.0,55.8,29.87,WNW,286,3.0,3.0,89,0.00,CLR,CLR,0.03,WeatherDisplay:10.34,2013-09-14 02:32:00,
2013-09-13 20:37:00,59.0,55.8,29.87,WNW,286,1.0,1.0,89,0.00,CLR,CLR,0.03,WeatherDisplay:10.34,2013-09-14 02:37:00,
2013-09-13 20:42:00,59.0,55.8,29.87,WNW,286,1.0,1.0,89,0.00,CLR,CLR,0.03,WeatherDisplay:10.34,2013-09-14 02:42:00,
2013-09-13 20:47:00,59.0,55.8,29.87,WSW,247,4.0,4.0,89,0.00,CLR,CLR,0.03,WeatherDisplay:10.34,2013-09-14 02:47:00,
2013-09-13 20:52:00,59.0,55.8,29.88,WSW,247,1.0,1.0,89,0.00,CLR,CLR,0.03,WeatherDisplay:10.34,2013-09-14 02:52:00,
2013-09-13 20:57:00,58.8,55.6,29.87,WSW,246,4.0,4.0,89,0.00,CLR,CLR,0.03,WeatherDisplay:10.34,2013-09-14 02:57:00,
2013-09-13 21:02:00,58.6,55.4,29.87,NNW,327,4.0,5.0,89,0.00,CLR,CLR,0.03,WeatherDisplay:10.34,2013-09-14 03:02:00,
2013-09-13 21:07:00,58.4,55.2,29.87,NNW,327,1.0,1.0,89,0.00,CLR,CLR,0.03,WeatherDisplay:10.34,2013-09-14 03:07:00,
2013-09-13 21:12:00,58.4,55.2,29.88,NNW,328,0.0,0.0,89,0.00,CLR,CLR,0.03,WeatherDisplay:10.34,2013-09-14 03:12:00,
2013-09-13 21:17:00,58.4,55.2,29.88,NNW,328,0.0,0.0,89,0.00,CLR,CLR,0.03,WeatherDisplay:10.34,2013-09-14 03:17:00,
2013-09-13 21:22:00,58.2,55.0,29.88,NNW,328,0.0,0.0,89,0.00,CLR,CLR,0.03,WeatherDisplay:10.34,2013-09-14 03:22:00,
2013-09-13 21:27:00,58.1,54.9,29.88,NNW,328,0.0,0.0,89,0.00,CLR,CLR,0.03,WeatherDisplay:10.34,2013-09-14 03:27:00,
2013-09-13 21:32:00,58.0,54.8,29.87,NNW,328,0.0,0.0,89,0.00,CLR,CLR,0.03,WeatherDisplay:10.34,2013-09-14 03:32:00,
2013-09-13 21:37:00,57.9,54.7,29.87,NNW,328,1.0,2.0,89,0.00,CLR,CLR,0.03,WeatherDisplay:10.34,2013-09-14 03:37:00,
2013-09-13 21:42:00,57.7,54.5,29.88,NNW,327,2.0,2.0,89,0.00,CLR,CLR,0.03,WeatherDisplay:10.34,2013-09-14 03:42:00,
2013-09-13 21:47:00,57.5,54.3,29.88,NNW,328,1.0,1.0,89,0.00,CLR,CLR,0.03,WeatherDisplay:10.34,2013-09-14 03:47:00,
2013-09-13 21:52:00,57.2,53.7,29.88,SW,236,4.0,4.0,88,0.00,CLR,CLR,0.03,WeatherDisplay:10.34,2013-09-14 03:52:00,
2013-09-13 21:57:00,56.8,53.3,29.88,SW,236,2.0,2.0,88,0.00,CLR,CLR,0.03,WeatherDisplay:10.34,2013-09-14 03:57:00,
2013-09-13 22:01:00,56.6,53.1,29.88,SW,236,1.0,1.0,88,0.00,CLR,CLR,0.03,WeatherDisplay:10.34,2013-09-14 04:01:00,
2013-09-13 22:03:00,56.4,52.9,29.88,SW,236,3.0,3.0,88,0.00,CLR,CLR,0.03,WeatherDisplay:10.34,2013-09-14 04:03:00,
2013-09-13 22:06:00,56.1,52.6,29.88,WSW,237,3.0,3.0,88,0.00,CLR,CLR,0.03,WeatherDisplay:10.34,2013-09-14 04:06:00,
2013-09-13 22:08:00,56.0,52.5,29.88,WSW,237,2.0,2.0,88,0.00,CLR,CLR,0.03,WeatherDisplay:10.34,2013-09-14 04:08:00,
2013-09-13 22:13:00,55.7,52.2,29.88,WSW,237,0.0,0.0,88,0.00,CLR,CLR,0.03,WeatherDisplay:10.34,2013-09-14 04:13:00,
2013-09-13 22:18:00,55.6,52.1,29.88,WSW,237,3.0,3.0,88,0.00,CLR,CLR,0.03,WeatherDisplay:10.34,2013-09-14 04:18:00,
2013-09-13 22:23:00,55.4,51.9,29.87,WSW,237,2.0,2.0,88,0.00,CLR,CLR,0.03,WeatherDisplay:10.34,2013-09-14 04:23:00,
2013-09-13 22:28:00,55.2,51.7,29.87,WSW,237,3.0,3.0,88,0.00,CLR,CLR,0.03,WeatherDisplay:10.34,2013-09-14 04:28:00,
2013-09-13 22:33:00,55.1,51.6,29.87,WSW,237,3.0,3.0,88,0.00,CLR,CLR,0.03,WeatherDisplay:10.34,2013-09-14 04:33:00,
2013-09-13 22:38:00,55.0,51.5,29.87,WSW,237,1.0,1.0,88,0.00,CLR,CLR,0.03,WeatherDisplay:10.34,2013-09-14 04:38:00,
2013-09-13 22:43:00,55.0,51.8,29.87,SSW,193,3.0,3.0,89,0.00,CLR,CLR,0.03,WeatherDisplay:10.34,2013-09-14 04:43:00,
2013-09-13 22:48:00,54.9,51.7,29.87,SSW,210,1.0,2.0,89,0.00,CLR,CLR,0.03,WeatherDisplay:10.34,2013-09-14 04:48:00,
2013-09-13 22:53:00,55.0,51.8,29.87,SW,217,2.0,7.0,89,0.00,CLR,CLR,0.03,WeatherDisplay:10.34,2013-09-14 04:53:00,
2013-09-13 22:58:00,55.0,51.8,29.87,SW,218,5.0,8.0,89,0.00,CLR,CLR,0.03,WeatherDisplay:10.34,2013-09-14 04:58:00,
2013-09-13 23:03:00,55.1,51.6,29.87,South,191,6.0,7.0,88,0.00,CLR,CLR,0.03,WeatherDisplay:10.34,2013-09-14 05:03:00,
2013-09-13 23:08:00,55.2,51.7,29.87,SSW,193,6.0,7.0,88,0.00,CLR,CLR,0.03,WeatherDisplay:10.34,2013-09-14 05:08:00,
2013-09-13 23:13:00,55.3,51.8,29.87,South,188,0.0,3.0,88,0.00,CLR,CLR,0.03,WeatherDisplay:10.34,2013-09-14 05:13:00,
2013-09-13 23:18:00,55.3,51.8,29.87,South,189,0.0,2.0,88,0.00,CLR,CLR,0.03,WeatherDisplay:10.34,2013-09-14 05:18:00,
2013-09-13 23:23:00,55.5,52.0,29.87,SSW,206,4.0,5.0,88,0.00,CLR,CLR,0.03,WeatherDisplay:10.34,2013-09-14 05:23:00,
2013-09-13 23:28:00,56.0,52.5,29.87,NW,306,7.0,9.0,88,0.00,CLR,CLR,0.03,WeatherDisplay:10.34,2013-09-14 05:28:00,
2013-09-13 23:33:00,56.7,53.2,29.87,West,273,6.0,7.0,88,0.00,CLR,CLR,0.03,WeatherDisplay:10.34,2013-09-14 05:33:00,
2013-09-13 23:38:00,57.4,53.6,29.87,WNW,285,0.0,0.0,87,0.00,CLR,CLR,0.03,WeatherDisplay:10.34,2013-09-14 05:38:00,
2013-09-13 23:43:00,57.7,53.5,29.87,WNW,299,0.0,0.0,86,0.00,CLR,CLR,0.03,WeatherDisplay:10.34,2013-09-14 05:43:00,
2013-09-13 23:48:00,58.1,53.6,29.87,SSW,198,6.0,6.0,85,0.00,CLR,CLR,0.03,WeatherDisplay:10.34,2013-09-14 05:48:00,
2013-09-13 23:53:00,58.0,53.2,29.87,SSW,192,4.0,7.0,84,0.00,CLR,CLR,0.03,WeatherDisplay:10.34,2013-09-14 05:53:00,
2013-09-13 23:58:00,57.7,52.9,29.87,South,189,2.0,3.0,84,0.00,CLR,CLR,0.03,WeatherDisplay:10.34,2013-09-14 05:58:00,